Time;durP1;ratioP1;P1;durP2;ratioP2;P2;SDS_P1;SDS_P2;PMS_P1;PMS_P2;Temp;Humidity;BMP_temperature;BMP_pressure;BME280_temperature;BME280_humidity;BME280_pressure;Samples;Min_cycle;Max_cycle;Signal;HPM_P1;HPM_P2
2022/05/02 00:00:44;;;;;;;;;;;;;;;16.11;58.01;101953.03;1040591;28;639;-65
2022/05/02 00:01:34;;;;;;;;;;;;;;;16.14;57.93;101958.19;1040700;28;728;-65
2022/05/02 00:02:24;;;;;;;;;;;;;;;16.11;58.35;101954.88;1041420;28;1890;-65
2022/05/02 00:03:15;;;;;;;;;;;;;;;16.11;57.90;101952.19;1040865;28;728;-65
2022/05/02 00:04:05;;;;;;;;;;;;;;;16.10;58.37;101954.00;1041540;28;685;-65
2022/05/02 00:04:56;;;;;;;;;;;;;;;16.11;58.20;101949.50;1041590;28;720;-64
2022/05/02 00:05:46;;;;;;;;;;;;;;;16.08;58.15;101955.94;1041920;28;614;-63
2022/05/02 00:06:37;;;;;;;;;;;;;;;16.10;58.06;101954.00;1041418;28;638;-63
2022/05/02 00:07:27;;;;;;;;;;;;;;;16.09;58.08;101957.66;1044552;28;706;-65
2022/05/02 00:08:21;;;;;;;;;;;;;;;16.07;58.16;101954.22;1040494;28;633;-65
2022/05/02 00:09:11;;;;;;;;;;;;;;;16.05;58.02;101953.47;1041654;28;662;-64
2022/05/02 00:10:02;;;;;;;;;;;;;;;16.06;58.02;101954.31;1039906;28;649;-64
2022/05/02 00:10:52;;;;;;;;;;;;;;;16.06;58.30;101954.31;1036821;28;654;-65
2022/05/02 00:11:42;;;;;;;;;;;;;;;16.05;57.89;101950.78;1041687;28;618;-64
2022/05/02 00:12:33;;;;;;;;;;;;;;;16.06;58.06;101955.19;1041995;28;1568;-64
2022/05/02 00:13:23;;;;;;;;;;;;;;;16.05;57.78;101957.97;1045594;28;622;-64
2022/05/02 00:14:14;;;;;;;;;;;;;;;16.04;58.39;101957.13;1044353;28;654;-64
2022/05/02 00:15:04;;;;;;;;;;;;;;;16.04;58.11;101956.25;1044096;28;683;-64
2022/05/02 00:15:55;;;;;;;;;;;;;;;16.03;58.20;101957.22;1044034;28;661;-67
2022/05/02 00:16:45;;;;;;;;;;;;;;;16.02;58.05;101959.06;1044758;28;627;-67
2022/05/02 00:18:44;;;;;;;;;;;;;;;16.04;57.98;101957.13;1044997;28;654;-67
2022/05/02 00:19:35;;;;;;;;;;;;;;;16.02;57.84;101948.28;1044768;28;717;-67
2022/05/02 00:20:25;;;;;;;;;;;;;;;16.01;57.97;101953.78;1044706;28;1311;-67
2022/05/02 00:21:16;;;;;;;;;;;;;;;15.99;57.50;101953.88;1043848;28;670;-66
2022/05/02 00:22:06;;;;;;;;;;;;;;;15.98;58.30;101952.16;1043984;28;690;-66
2022/05/02 00:22:57;;;;;;;;;;;;;;;15.99;57.93;101948.50;1044795;28;823;-67
2022/05/02 00:23:47;;;;;;;;;;;;;;;16.01;58.36;101951.94;1043595;28;642;-67
2022/05/02 00:24:38;;;;;;;;;;;;;;;15.98;57.84;101946.78;1043763;28;631;-66
2022/05/02 00:25:28;;;;;;;;;;;;;;;15.98;58.03;101946.78;1043931;28;757;-68
2022/05/02 00:26:19;;;;;;;;;;;;;;;15.97;58.30;101951.31;1043483;28;1591;-67
2022/05/02 00:27:09;;;;;;;;;;;;;;;15.97;57.65;101951.31;1043890;28;634;-66
2022/05/02 00:27:59;;;;;;;;;;;;;;;15.97;57.59;101951.31;1040504;28;694;-66
2022/05/02 00:28:50;;;;;;;;;;;;;;;15.96;58.00;101948.72;1040150;28;634;-66
2022/05/02 00:29:40;;;;;;;;;;;;;;;15.93;57.94;101944.44;1038609;28;716;-66
2022/05/02 00:30:31;;;;;;;;;;;;;;;15.95;58.13;101947.00;1043724;28;721;-66
2022/05/02 00:31:21;;;;;;;;;;;;;;;15.93;58.17;101946.28;1044823;28;721;-66
2022/05/02 00:32:12;;;;;;;;;;;;;;;15.92;57.94;101947.25;1040682;28;712;-66
2022/05/02 00:33:02;;;;;;;;;;;;;;;15.94;58.06;101950.69;1041045;28;630;-66
2022/05/02 00:33:52;;;;;;;;;;;;;;;15.93;57.93;101943.59;1042941;28;682;-66
2022/05/02 00:34:43;;;;;;;;;;;;;;;15.92;58.02;101937.34;1044807;28;729;-66
2022/05/02 00:35:33;;;;;;;;;;;;;;;15.91;58.19;101946.38;1040619;28;652;-65
2022/05/02 00:36:24;;;;;;;;;;;;;;;15.91;57.70;101940.13;1040904;28;661;-65
2022/05/02 00:37:15;;;;;;;;;;;;;;;15.92;57.73;101939.16;1040922;28;712;-66
2022/05/02 00:38:06;;;;;;;;;;;;;;;15.91;57.78;101929.38;1044028;28;717;-66
2022/05/02 00:38:56;;;;;;;;;;;;;;;15.90;57.75;101933.03;1044849;28;733;-67
2022/05/02 00:39:47;;;;;;;;;;;;;;;15.91;58.08;101934.75;1040609;28;650;-68
2022/05/02 00:40:37;;;;;;;;;;;;;;;15.90;57.61;101933.91;1042131;28;1310;-66
2022/05/02 00:41:28;;;;;;;;;;;;;;;15.91;57.93;101937.44;1041864;28;1218;-66
2022/05/02 00:42:20;;;;;;;;;;;;;;;15.92;57.86;101936.47;1041819;28;1898;-66
2022/05/02 00:43:10;;;;;;;;;;;;;;;15.89;57.77;101934.00;1039617;28;1172;-66
2022/05/02 00:44:00;;;;;;;;;;;;;;;15.89;57.60;101934.00;1042425;28;1124;-66
2022/05/02 00:44:51;;;;;;;;;;;;;;;15.87;58.12;101928.72;1044513;28;1186;-66
2022/05/02 00:45:41;;;;;;;;;;;;;;;15.87;57.66;101934.09;1043507;28;1202;-66
2022/05/02 00:46:32;;;;;;;;;;;;;;;15.84;58.00;101931.63;1044877;28;1104;-66
2022/05/02 00:47:22;;;;;;;;;;;;;;;15.85;58.00;101935.19;1043416;28;1227;-66
2022/05/02 00:48:13;;;;;;;;;;;;;;;15.85;57.70;101929.81;1046147;28;1172;-66
2022/05/02 00:49:03;;;;;;;;;;;;;;;15.83;57.72;101929.91;1046079;28;1206;-66
2022/05/02 00:49:54;;;;;;;;;;;;;;;15.84;58.20;101930.78;1046450;28;823;-66
2022/05/02 00:50:44;;;;;;;;;;;;;;;15.84;57.81;101928.06;1045178;28;1190;-67
2022/05/02 00:51:35;;;;;;;;;;;;;;;15.84;57.75;101925.38;1044538;28;1334;-66
2022/05/02 00:52:25;;;;;;;;;;;;;;;15.82;58.23;101924.63;1041134;28;689;-66
2022/05/02 00:53:16;;;;;;;;;;;;;;;15.82;58.09;101933.56;1044993;28;1143;-66
2022/05/02 00:54:06;;;;;;;;;;;;;;;15.83;57.65;101929.03;1045277;28;1262;-63
2022/05/02 00:54:56;;;;;;;;;;;;;;;15.83;58.08;101921.84;1041028;28;665;-64
2022/05/02 00:55:47;;;;;;;;;;;;;;;15.83;57.49;101927.22;1044366;28;651;-65
2022/05/02 00:56:37;;;;;;;;;;;;;;;15.81;57.52;101929.16;1044912;28;697;-65
2022/05/02 00:57:28;;;;;;;;;;;;;;;15.80;57.54;101922.06;1041018;28;689;-65
2022/05/02 00:58:18;;;;;;;;;;;;;;;15.80;57.48;101924.75;1040502;28;751;-65
2022/05/02 00:59:09;;;;;;;;;;;;;;;15.80;57.98;101927.44;1041561;28;638;-64
2022/05/02 00:59:59;;;;;;;;;;;;;;;15.79;57.92;101922.16;1043188;28;659;-64
2022/05/02 01:00:49;;;;;;;;;;;;;;;15.78;57.62;101923.97;1044104;28;1147;-64
2022/05/02 01:01:40;;;;;;;;;;;;;;;15.76;57.38;101917.88;1043568;28;1140;-63
2022/05/02 01:02:30;;;;;;;;;;;;;;;15.75;57.60;101918.84;1043782;28;1951;-63
2022/05/02 01:03:21;;;;;;;;;;;;;;;15.78;57.72;101923.13;1041649;28;1179;-63
2022/05/02 01:04:11;;;;;;;;;;;;;;;15.77;58.03;101926.78;1044360;28;1215;-63
2022/05/02 01:05:01;;;;;;;;;;;;;;;15.76;57.98;101925.09;1043390;28;1144;-64
2022/05/02 01:07:19;;;;;;;;;;;;;;;15.75;57.55;101923.34;1043598;28;1071;-63
2022/05/02 01:08:09;;;;;;;;;;;;;;;15.72;58.06;101919.06;1043835;28;1255;-63
2022/05/02 01:08:59;;;;;;;;;;;;;;;15.73;57.60;101925.28;1041650;28;1126;-63
2022/05/02 01:09:50;;;;;;;;;;;;;;;15.73;57.97;101919.91;1044241;28;1099;-64
2022/05/02 01:10:40;;;;;;;;;;;;;;;15.72;57.60;101923.56;1039738;28;689;-64
2022/05/02 01:11:31;;;;;;;;;;;;;;;15.71;57.66;101919.16;1040854;28;697;-65
2022/05/02 01:12:21;;;;;;;;;;;;;;;15.73;57.85;101919.91;1040909;28;658;-65
2022/05/02 01:13:13;;;;;;;;;;;;;;;15.72;57.60;101918.19;1038548;28;608;-65
2022/05/02 01:14:04;;;;;;;;;;;;;;;15.72;57.68;101918.19;1040369;28;811;-66
2022/05/02 01:14:54;;;;;;;;;;;;;;;15.69;57.63;101918.41;1040878;28;694;-64
2022/05/02 01:15:44;;;;;;;;;;;;;;;15.68;57.97;101919.38;1040825;28;720;-65
2022/05/02 01:16:35;;;;;;;;;;;;;;;15.68;57.65;101916.69;1040405;28;722;-66
2022/05/02 01:17:25;;;;;;;;;;;;;;;15.68;57.63;101916.69;1040150;28;631;-64
2022/05/02 01:18:16;;;;;;;;;;;;;;;15.67;57.66;101914.94;1040930;28;646;-66
2022/05/02 01:19:06;;;;;;;;;;;;;;;15.68;57.58;101919.38;1040211;28;721;-65
2022/05/02 01:19:57;;;;;;;;;;;;;;;15.65;57.91;101923.13;1040812;28;674;-65
2022/05/02 01:20:47;;;;;;;;;;;;;;;15.64;57.38;101921.41;1040140;28;698;-65
2022/05/02 01:21:38;;;;;;;;;;;;;;;15.64;57.59;101916.03;1040813;28;682;-64
2022/05/02 01:22:29;;;;;;;;;;;;;;;15.64;57.77;101916.03;1043560;28;1938;-64
2022/05/02 01:23:19;;;;;;;;;;;;;;;15.63;58.03;101915.16;1044009;28;686;-64
2022/05/02 01:24:09;;;;;;;;;;;;;;;15.63;57.26;101916.97;1044013;28;642;-63
2022/05/02 01:25:00;;;;;;;;;;;;;;;15.63;57.79;101923.22;1043701;28;698;-63
2022/05/02 01:25:50;;;;;;;;;;;;;;;15.62;57.77;101918.81;1043875;28;739;-64
2022/05/02 01:26:41;;;;;;;;;;;;;;;15.63;57.40;101912.47;1043788;28;623;-65
2022/05/02 01:27:31;;;;;;;;;;;;;;;15.61;57.18;101914.41;1044010;28;729;-64
2022/05/02 01:28:23;;;;;;;;;;;;;;;15.62;57.61;101916.13;1043540;28;747;-64
2022/05/02 01:29:13;;;;;;;;;;;;;;;15.63;57.40;101915.16;1044023;28;682;-65
2022/05/02 01:30:04;;;;;;;;;;;;;;;15.62;57.29;101912.56;1043781;28;702;-65
2022/05/02 01:30:54;;;;;;;;;;;;;;;15.60;57.47;101910.00;1043944;28;658;-65
2022/05/02 01:31:45;;;;;;;;;;;;;;;15.59;57.26;101913.63;1044301;28;725;-65
2022/05/02 01:32:35;;;;;;;;;;;;;;;15.60;57.15;101911.81;1043910;28;725;-65
2022/05/02 01:33:25;;;;;;;;;;;;;;;15.58;57.28;101911.09;1043676;28;788;-65
2022/05/02 01:34:16;;;;;;;;;;;;;;;15.57;57.43;101915.59;1043880;28;788;-66
2022/05/02 01:35:06;;;;;;;;;;;;;;;15.58;57.49;101913.78;1043631;28;1481;-65
2022/05/02 01:35:57;;;;;;;;;;;;;;;15.57;57.54;101918.28;1043042;28;666;-65
2022/05/02 01:36:47;;;;;;;;;;;;;;;15.58;57.37;101913.78;1043731;28;689;-64
2022/05/02 01:37:37;;;;;;;;;;;;;;;15.58;57.50;101911.94;1041021;28;654;-64
2022/05/02 01:38:28;;;;;;;;;;;;;;;15.56;57.45;101913.88;1042059;28;791;-64
2022/05/02 01:39:18;;;;;;;;;;;;;;;15.57;57.28;101917.44;1042217;28;626;-63
2022/05/02 01:40:09;;;;;;;;;;;;;;;15.56;57.06;101911.19;1042135;28;637;-64
2022/05/02 01:40:59;;;;;;;;;;;;;;;15.56;57.46;101913.88;1040122;28;631;-63
2022/05/02 01:41:50;;;;;;;;;;;;;;;15.56;57.63;101911.19;1044111;28;639;-63
2022/05/02 01:42:40;;;;;;;;;;;;;;;15.56;57.16;101916.56;1040692;28;1966;-63
2022/05/02 01:43:31;;;;;;;;;;;;;;;15.56;57.66;101913.88;1040300;28;597;-63
2022/05/02 01:44:22;;;;;;;;;;;;;;;15.54;57.24;101907.72;1041461;28;658;-63
2022/05/02 01:45:12;;;;;;;;;;;;;;;15.54;57.33;101918.47;1039648;28;627;-63
2022/05/02 01:46:03;;;;;;;;;;;;;;;15.53;57.46;101908.69;1042167;28;659;-64
2022/05/02 01:46:53;;;;;;;;;;;;;;;15.51;57.32;101915.97;1042208;28;1477;-64
2022/05/02 01:47:44;;;;;;;;;;;;;;;15.51;57.78;101920.50;1039916;28;659;-63
2022/05/02 01:48:34;;;;;;;;;;;;;;;15.51;57.48;101905.25;1042085;28;729;-63
2022/05/02 01:49:25;;;;;;;;;;;;;;;15.52;57.02;101919.53;1042137;28;725;-64
2022/05/02 01:50:15;;;;;;;;;;;;;;;15.54;57.75;101904.16;1042081;28;645;-64
2022/05/02 01:51:06;;;;;;;;;;;;;;;15.53;56.77;101903.31;1040289;28;694;-63
2022/05/02 01:51:59;;;;;;;;;;;;;;;15.50;57.54;101913.41;1041060;28;713;-63
2022/05/02 01:52:49;;;;;;;;;;;;;;;15.51;57.41;101907.06;1040869;28;808;-63
2022/05/02 01:53:40;;;;;;;;;;;;;;;15.50;57.49;101905.34;1044104;28;645;-63
2022/05/02 01:54:30;;;;;;;;;;;;;;;15.49;57.11;101909.84;1044883;28;696;-63
2022/05/02 01:55:21;;;;;;;;;;;;;;;15.49;57.30;101900.94;1041377;28;686;-63
2022/05/02 01:56:11;;;;;;;;;;;;;;;15.49;57.06;101904.47;1041033;28;770;-63
2022/05/02 01:57:01;;;;;;;;;;;;;;;15.50;57.51;101902.66;1040903;28;614;-63
2022/05/02 01:57:52;;;;;;;;;;;;;;;15.51;56.94;101899.00;1043975;28;633;-64
2022/05/02 01:58:43;;;;;;;;;;;;;;;15.50;57.10;101903.50;1044675;28;634;-63
2022/05/02 01:59:33;;;;;;;;;;;;;;;15.49;57.26;101895.56;1046363;28;666;-63
2022/05/02 02:00:24;;;;;;;;;;;;;;;15.49;57.02;101901.78;1043860;28;725;-63
2022/05/02 02:01:14;;;;;;;;;;;;;;;15.48;57.20;101900.06;1046151;28;717;-63
2022/05/02 02:02:05;;;;;;;;;;;;;;;15.49;57.23;101892.88;1042528;28;637;-64
2022/05/02 02:02:55;;;;;;;;;;;;;;;15.47;57.29;101895.66;1040750;28;732;-64
2022/05/02 02:03:45;;;;;;;;;;;;;;;15.45;57.36;101897.59;1041669;28;670;-65
2022/05/02 02:05:48;;;;;;;;;;;;;;;15.49;57.42;101899.09;1040483;28;752;-64
2022/05/02 02:06:38;;;;;;;;;;;;;;;15.48;57.08;101899.22;1041592;28;673;-65
2022/05/02 02:07:29;;;;;;;;;;;;;;;15.48;56.93;101896.53;1041479;28;676;-64
2022/05/02 02:08:19;;;;;;;;;;;;;;;15.46;57.07;101895.75;1043771;28;725;-65
2022/05/02 02:09:10;;;;;;;;;;;;;;;15.44;57.44;101887.81;1045712;28;1575;-65
2022/05/02 02:10:00;;;;;;;;;;;;;;;15.44;56.89;101900.38;1043811;28;634;-65
2022/05/02 02:10:51;;;;;;;;;;;;;;;15.44;57.25;101901.25;1044156;28;681;-65
2022/05/02 02:11:41;;;;;;;;;;;;;;;15.43;57.78;101886.09;1039455;28;725;-65
2022/05/02 02:12:32;;;;;;;;;;;;;;;15.42;57.29;101900.47;1039275;28;856;-65
2022/05/02 02:13:22;;;;;;;;;;;;;;;15.43;57.21;101886.09;1040814;28;626;-64
2022/05/02 02:14:13;;;;;;;;;;;;;;;15.42;56.91;101888.88;1040896;28;658;-65
2022/05/02 02:15:03;;;;;;;;;;;;;;;15.41;57.19;101888.00;1044753;28;668;-65
2022/05/02 02:15:54;;;;;;;;;;;;;;;15.40;57.12;101891.69;1045247;28;637;-66
2022/05/02 02:16:44;;;;;;;;;;;;;;;15.42;57.46;101888.88;1041453;28;779;-66
2022/05/02 02:17:35;;;;;;;;;;;;;;;15.41;57.14;101884.47;1041436;28;650;-64
2022/05/02 02:18:25;;;;;;;;;;;;;;;15.42;56.90;101896.94;1041420;28;671;-65
2022/05/02 02:19:16;;;;;;;;;;;;;;;15.41;56.83;101887.16;1041470;28;662;-65
2022/05/02 02:20:06;;;;;;;;;;;;;;;15.40;57.12;101882.78;1041646;28;709;-65
2022/05/02 02:20:57;;;;;;;;;;;;;;;15.38;57.03;101893.63;1041413;28;706;-65
2022/05/02 02:21:47;;;;;;;;;;;;;;;15.38;57.07;101885.56;1041497;28;658;-65
2022/05/02 02:22:37;;;;;;;;;;;;;;;15.39;56.83;101884.59;1041317;28;1906;-66
2022/05/02 02:23:28;;;;;;;;;;;;;;;15.41;57.16;101887.16;1041464;28;725;-65
2022/05/02 02:24:18;;;;;;;;;;;;;;;15.39;56.78;101886.41;1040173;28;584;-65
2022/05/02 02:25:09;;;;;;;;;;;;;;;15.38;56.92;101890.94;1041404;28;646;-65
2022/05/02 02:25:59;;;;;;;;;;;;;;;15.38;57.23;101888.25;1039438;28;680;-66
2022/05/02 02:26:50;;;;;;;;;;;;;;;15.36;57.11;101890.19;1040997;28;662;-66
2022/05/02 02:27:40;;;;;;;;;;;;;;;15.38;56.80;101884.69;1040229;28;715;-66
2022/05/02 02:28:31;;;;;;;;;;;;;;;15.35;56.66;101888.44;1042890;28;1612;-67
2022/05/02 02:29:21;;;;;;;;;;;;;;;15.36;56.84;101884.81;1044226;28;632;-66
2022/05/02 02:30:12;;;;;;;;;;;;;;;15.36;56.76;101890.19;1044221;28;1469;-66
2022/05/02 02:31:02;;;;;;;;;;;;;;;15.35;57.27;101884.91;1044543;28;649;-66
2022/05/02 02:31:53;;;;;;;;;;;;;;;15.33;56.61;101890.38;1044035;28;654;-66
2022/05/02 02:32:43;;;;;;;;;;;;;;;15.34;57.20;101886.72;1043631;28;714;-67
2022/05/02 02:33:34;;;;;;;;;;;;;;;15.37;56.68;101889.22;1044217;28;619;-66
2022/05/02 02:34:24;;;;;;;;;;;;;;;15.35;56.59;101896.50;1044413;28;713;-67
2022/05/02 02:35:14;;;;;;;;;;;;;;;15.34;56.73;101893.94;1044217;28;753;-66
2022/05/02 02:36:05;;;;;;;;;;;;;;;15.36;56.75;101889.31;1044460;28;692;-67
2022/05/02 02:36:55;;;;;;;;;;;;;;;15.35;56.94;101896.50;1043639;28;718;-67
2022/05/02 02:37:46;;;;;;;;;;;;;;;15.32;56.89;101883.28;1044134;28;611;-66
2022/05/02 02:38:36;;;;;;;;;;;;;;;15.32;56.98;101894.03;1044556;28;721;-66
2022/05/02 02:39:27;;;;;;;;;;;;;;;15.33;56.49;101894.88;1044547;28;698;-66
2022/05/02 02:40:17;;;;;;;;;;;;;;;15.32;56.99;101887.78;1044129;28;780;-67
2022/05/02 02:41:07;;;;;;;;;;;;;;;15.32;57.04;101891.34;1044418;28;650;-67
2022/05/02 02:41:58;;;;;;;;;;;;;;;15.29;56.82;101888.84;1044583;28;654;-67
2022/05/02 02:42:49;;;;;;;;;;;;;;;15.29;56.73;101896.91;1043138;28;1953;-68
2022/05/02 02:43:39;;;;;;;;;;;;;;;15.29;56.77;101888.84;1043370;28;788;-67
2022/05/02 02:44:30;;;;;;;;;;;;;;;15.31;56.95;101894.13;1045436;28;1591;-67
2022/05/02 02:45:20;;;;;;;;;;;;;;;15.29;56.85;101886.16;1045293;28;676;-66
2022/05/02 02:46:11;;;;;;;;;;;;;;;15.29;56.89;101889.72;1044208;28;698;-66
2022/05/02 02:47:01;;;;;;;;;;;;;;;15.27;56.50;101886.28;1044329;28;722;-67
2022/05/02 02:47:52;;;;;;;;;;;;;;;15.25;56.81;101888.19;1045237;28;650;-67
2022/05/02 02:48:42;;;;;;;;;;;;;;;15.27;56.50;101888.97;1045438;28;743;-67
2022/05/02 02:49:32;;;;;;;;;;;;;;;15.29;56.39;101889.72;1045369;28;673;-67
2022/05/02 02:50:23;;;;;;;;;;;;;;;15.29;56.92;101888.84;1045434;28;709;-67
2022/05/02 02:51:13;;;;;;;;;;;;;;;15.27;56.59;101882.72;1043997;28;694;-67
2022/05/02 02:52:04;;;;;;;;;;;;;;;15.27;56.21;101882.72;1039272;28;678;-67
2022/05/02 02:52:54;;;;;;;;;;;;;;;15.26;56.89;101889.06;1040999;28;730;-67
2022/05/02 02:53:45;;;;;;;;;;;;;;;15.26;56.80;101889.06;1039462;28;646;-66
2022/05/02 02:54:35;;;;;;;;;;;;;;;15.25;56.68;101884.66;1039331;28;761;-66
2022/05/02 02:55:26;;;;;;;;;;;;;;;15.23;56.93;101884.75;1039186;28;639;-66
2022/05/02 02:56:16;;;;;;;;;;;;;;;15.24;56.75;101883.78;1039737;28;659;-66
2022/05/02 02:57:07;;;;;;;;;;;;;;;15.23;56.91;101883.91;1041032;28;893;-66
2022/05/02 02:57:57;;;;;;;;;;;;;;;15.25;56.16;101881.97;1040017;28;717;-66
2022/05/02 02:58:47;;;;;;;;;;;;;;;15.23;56.82;101878.53;1040189;28;789;-66
2022/05/02 02:59:38;;;;;;;;;;;;;;;15.23;56.30;101881.22;1041219;28;654;-65
2022/05/02 03:00:28;;;;;;;;;;;;;;;15.21;56.62;101880.47;1044377;28;635;-66
2022/05/02 03:01:19;;;;;;;;;;;;;;;15.22;56.78;101877.69;1043935;28;741;-66
2022/05/02 03:02:09;;;;;;;;;;;;;;;15.23;56.77;101883.91;1041024;28;732;-66
2022/05/02 03:03:00;;;;;;;;;;;;;;;15.21;56.89;101875.09;1040412;28;685;-65
2022/05/02 03:03:50;;;;;;;;;;;;;;;15.20;56.63;101879.63;1041239;28;752;-66
2022/05/02 03:06:02;;;;;;;;;;;;;;;15.20;56.65;101878.75;1039945;28;666;-65
2022/05/02 03:06:52;;;;;;;;;;;;;;;15.20;56.56;101881.44;1041303;28;603;-65
2022/05/02 03:07:43;;;;;;;;;;;;;;;15.18;56.62;101872.63;1041230;28;713;-65
2022/05/02 03:08:33;;;;;;;;;;;;;;;15.18;56.43;101867.25;1041323;28;787;-65
2022/05/02 03:09:23;;;;;;;;;;;;;;;15.15;56.81;101876.38;1041221;28;662;-65
2022/05/02 03:10:14;;;;;;;;;;;;;;;15.16;56.60;101874.56;1043781;28;717;-65
2022/05/02 03:11:04;;;;;;;;;;;;;;;15.15;56.45;101871.00;1046899;28;712;-65
2022/05/02 03:11:55;;;;;;;;;;;;;;;15.17;56.31;101868.22;1044265;28;618;-64
2022/05/02 03:12:45;;;;;;;;;;;;;;;15.15;56.78;101870.16;1043764;28;733;-64
2022/05/02 03:13:36;;;;;;;;;;;;;;;15.16;56.64;101872.72;1044601;28;630;-64
2022/05/02 03:14:26;;;;;;;;;;;;;;;15.14;56.59;101865.75;1046921;28;650;-64
2022/05/02 03:15:16;;;;;;;;;;;;;;;15.14;56.55;101865.75;1047524;28;622;-64
2022/05/02 03:16:07;;;;;;;;;;;;;;;15.13;56.33;101866.69;1041509;28;717;-63
2022/05/02 03:16:58;;;;;;;;;;;;;;;15.15;56.06;101867.47;1041519;28;626;-63
2022/05/02 03:17:48;;;;;;;;;;;;;;;15.15;56.72;101864.78;1040402;28;658;-63
2022/05/02 03:18:38;;;;;;;;;;;;;;;15.18;56.64;101859.19;1041306;28;670;-64
2022/05/02 03:19:29;;;;;;;;;;;;;;;15.16;56.39;101862.00;1041784;28;709;-64
2022/05/02 03:20:19;;;;;;;;;;;;;;;15.14;56.21;101868.41;1041195;28;1145;-63
2022/05/02 03:21:10;;;;;;;;;;;;;;;15.13;56.36;101867.56;1041295;28;689;-63
2022/05/02 03:22:00;;;;;;;;;;;;;;;15.11;56.41;101857.88;1039308;28;703;-62
2022/05/02 03:22:51;;;;;;;;;;;;;;;15.10;56.60;101867.75;1041128;28;1961;-63
2022/05/02 03:23:41;;;;;;;;;;;;;;;15.11;56.27;101858.75;1041269;28;646;-62
2022/05/02 03:24:32;;;;;;;;;;;;;;;15.12;56.38;101863.16;1046362;28;1595;-62
2022/05/02 03:25:22;;;;;;;;;;;;;;;15.13;56.25;101861.31;1044022;28;935;-63
2022/05/02 03:26:13;;;;;;;;;;;;;;;15.14;56.19;101869.28;1045630;28;689;-63
2022/05/02 03:27:03;;;;;;;;;;;;;;;15.12;56.49;101860.47;1044496;28;673;-63
2022/05/02 03:27:53;;;;;;;;;;;;;;;15.11;56.18;101858.75;1045223;28;756;-63
2022/05/02 03:28:44;;;;;;;;;;;;;;;15.12;55.88;101864.97;1044328;28;682;-63
2022/05/02 03:29:36;;;;;;;;;;;;;;;15.11;56.31;101863.25;1043413;28;681;-63
2022/05/02 03:30:26;;;;;;;;;;;;;;;15.11;56.45;101853.38;1044097;28;709;-63
2022/05/02 03:31:17;;;;;;;;;;;;;;;15.09;56.36;101857.13;1044137;28;651;-63
2022/05/02 03:32:07;;;;;;;;;;;;;;;15.09;56.17;101862.50;1044239;28;720;-63
2022/05/02 03:32:57;;;;;;;;;;;;;;;15.10;56.18;101858.84;1043996;28;667;-63
2022/05/02 03:33:48;;;;;;;;;;;;;;;15.06;55.75;101862.69;1044121;28;702;-63
2022/05/02 03:34:38;;;;;;;;;;;;;;;15.06;56.32;101860.88;1044253;28;665;-64
2022/05/02 03:35:29;;;;;;;;;;;;;;;15.06;56.56;101866.25;1044326;28;717;-63
2022/05/02 03:36:19;;;;;;;;;;;;;;;15.05;56.47;101853.78;1043905;28;736;-64
2022/05/02 03:37:10;;;;;;;;;;;;;;;15.05;56.29;101851.09;1043721;28;615;-63
2022/05/02 03:38:00;;;;;;;;;;;;;;;15.07;56.43;101859.06;1044139;28;785;-63
2022/05/02 03:38:51;;;;;;;;;;;;;;;15.08;56.59;101861.63;1043642;28;1524;-63
2022/05/02 03:39:41;;;;;;;;;;;;;;;15.08;56.03;101863.47;1044176;28;638;-63
2022/05/02 03:40:31;;;;;;;;;;;;;;;15.06;56.02;101855.50;1043972;28;638;-63
2022/05/02 03:41:22;;;;;;;;;;;;;;;15.08;56.31;101858.09;1044049;28;647;-63
2022/05/02 03:42:12;;;;;;;;;;;;;;;15.06;56.00;101855.50;1044284;28;646;-63
2022/05/02 03:43:03;;;;;;;;;;;;;;;15.04;56.01;101857.47;1043742;28;611;-62
2022/05/02 03:43:53;;;;;;;;;;;;;;;15.05;55.83;101867.19;1044060;28;655;-62
2022/05/02 03:44:44;;;;;;;;;;;;;;;15.05;56.25;101858.31;1045148;28;614;-62
2022/05/02 03:45:34;;;;;;;;;;;;;;;15.06;55.79;101865.38;1044111;28;657;-62
2022/05/02 03:46:25;;;;;;;;;;;;;;;15.05;56.20;101858.31;1044699;28;652;-62
2022/05/02 03:47:15;;;;;;;;;;;;;;;15.03;56.38;101858.41;1044186;28;697;-62
2022/05/02 03:48:06;;;;;;;;;;;;;;;15.02;56.17;101858.53;1043120;28;622;-63
2022/05/02 03:48:57;;;;;;;;;;;;;;;15.04;55.92;101861.97;1044018;28;665;-63
2022/05/02 03:49:48;;;;;;;;;;;;;;;15.01;56.06;101863.03;1044456;28;646;-63
2022/05/02 03:50:38;;;;;;;;;;;;;;;15.02;55.87;101855.84;1042742;28;1583;-65
2022/05/02 03:51:29;;;;;;;;;;;;;;;15.02;55.98;101862.06;1040156;28;760;-63
2022/05/02 03:52:19;;;;;;;;;;;;;;;15.03;55.72;101860.25;1040967;28;1670;-63
2022/05/02 03:53:09;;;;;;;;;;;;;;;14.99;56.38;101859.59;1044144;28;677;-63
2022/05/02 03:54:00;;;;;;;;;;;;;;;15.00;56.05;101858.63;1043531;28;632;-63
2022/05/02 03:54:50;;;;;;;;;;;;;;;14.99;56.35;101856.91;1044334;28;744;-63
2022/05/02 03:55:42;;;;;;;;;;;;;;;15.02;56.01;101855.84;1043679;28;634;-63
2022/05/02 03:56:33;;;;;;;;;;;;;;;14.99;55.77;101854.22;1043957;28;741;-63
2022/05/02 03:57:23;;;;;;;;;;;;;;;14.99;56.46;101853.34;1044161;28;717;-62
2022/05/02 03:58:14;;;;;;;;;;;;;;;14.98;56.45;101857.00;1043930;28;654;-63
2022/05/02 03:59:04;;;;;;;;;;;;;;;14.99;55.92;101858.72;1044097;28;677;-63
2022/05/02 03:59:55;;;;;;;;;;;;;;;15.02;55.80;101858.53;1043427;28;634;-63
2022/05/02 04:00:45;;;;;;;;;;;;;;;14.97;55.61;101857.97;1044004;28;550;-63
2022/05/02 04:01:38;;;;;;;;;;;;;;;14.99;55.66;101864.09;1044162;28;662;-63
2022/05/02 04:02:29;;;;;;;;;;;;;;;14.97;56.19;101866.00;1044446;28;1890;-63
2022/05/02 04:03:19;;;;;;;;;;;;;;;15.00;56.03;101865.81;1044130;28;653;-63
2022/05/02 04:04:10;;;;;;;;;;;;;;;14.97;55.58;101860.66;1043991;28;682;-64
2022/05/02 04:05:00;;;;;;;;;;;;;;;14.94;56.37;101859.88;1044077;28;1532;-63
2022/05/02 04:05:50;;;;;;;;;;;;;;;14.96;55.78;101862.47;1043286;28;635;-64
2022/05/02 04:06:41;;;;;;;;;;;;;;;14.94;56.21;101857.19;1043650;28;646;-63
2022/05/02 04:07:31;;;;;;;;;;;;;;;14.97;56.21;101863.34;1043822;28;874;-63
2022/05/02 04:08:22;;;;;;;;;;;;;;;14.95;55.99;101860.75;1042909;28;701;-63
2022/05/02 04:09:12;;;;;;;;;;;;;;;14.93;56.41;101863.53;1043671;28;736;-63
2022/05/02 04:10:03;;;;;;;;;;;;;;;14.92;55.56;101869.00;1044557;28;650;-63
2022/05/02 04:10:53;;;;;;;;;;;;;;;14.90;55.39;101863.72;1043326;28;694;-64
2022/05/02 04:11:43;;;;;;;;;;;;;;;14.91;55.63;101868.13;1043022;28;682;-64
2022/05/02 04:12:34;;;;;;;;;;;;;;;14.91;55.68;101864.59;1043648;28;698;-65
2022/05/02 04:13:24;;;;;;;;;;;;;;;14.91;56.21;101868.13;1043727;28;694;-65
2022/05/02 04:14:15;;;;;;;;;;;;;;;14.92;55.82;101869.00;1043070;28;650;-67
2022/05/02 04:15:05;;;;;;;;;;;;;;;14.90;56.04;101863.72;1043774;28;705;-65
2022/05/02 04:15:56;;;;;;;;;;;;;;;14.92;55.61;101863.63;1043001;28;807;-65
2022/05/02 04:16:46;;;;;;;;;;;;;;;14.89;55.86;101864.69;1043642;28;654;-65
2022/05/02 04:17:36;;;;;;;;;;;;;;;14.91;55.67;101864.59;1043996;28;749;-65
2022/05/02 04:18:27;;;;;;;;;;;;;;;14.89;56.25;101870.06;1043875;28;745;-65
2022/05/02 04:19:19;;;;;;;;;;;;;;;14.88;56.17;101868.34;1040114;28;740;-65
2022/05/02 04:20:09;;;;;;;;;;;;;;;14.91;56.15;101872.66;1040444;28;678;-65
2022/05/02 04:21:00;;;;;;;;;;;;;;;14.91;56.17;101868.13;1043375;28;694;-64
2022/05/02 04:21:50;;;;;;;;;;;;;;;14.90;55.83;101860.19;1045268;28;688;-64
2022/05/02 04:22:41;;;;;;;;;;;;;;;14.92;55.41;101864.50;1041189;28;1906;-63
2022/05/02 04:23:31;;;;;;;;;;;;;;;14.88;55.39;101862.97;1043000;28;725;-64
2022/05/02 04:24:21;;;;;;;;;;;;;;;14.88;55.56;101864.78;1044852;28;701;-63
2022/05/02 04:25:12;;;;;;;;;;;;;;;14.86;55.84;101866.75;1047173;28;666;-64
2022/05/02 04:26:02;;;;;;;;;;;;;;;14.88;55.69;101868.34;1048607;28;708;-64
2022/05/02 04:26:53;;;;;;;;;;;;;;;14.88;55.62;101867.47;1041215;28;677;-64
2022/05/02 04:27:43;;;;;;;;;;;;;;;14.89;55.33;101872.75;1045557;28;673;-64
2022/05/02 04:28:36;;;;;;;;;;;;;;;14.90;55.40;101870.91;1040979;28;651;-64
2022/05/02 04:29:27;;;;;;;;;;;;;;;14.88;55.77;101875.53;1040099;28;671;-64
2022/05/02 04:30:17;;;;;;;;;;;;;;;14.87;55.98;101871.13;1041306;28;676;-64
2022/05/02 04:31:08;;;;;;;;;;;;;;;14.89;55.88;101866.50;1041064;28;650;-64